Quast, MT

7:04 AM MST on February 28, 2017 (GMT -0700)
| | Change Station
Active Advisory: Winter Weather Advisory

Elev -9999 ft 0.00 °N, 0.00 °E | Updated 0 second ago

Snow
Snow
°F
Feels Like °F
N
Wind Variable Wind from North
Gusts mph

Today
High -- | Low -- °F
--% Chance of Precip.
Yesterday
High -- | Low -- °F
Precip. -- in
Pressure 29.71 in
Visibility 10.0 miles
Clouds Mostly Cloudy 4700 ft
Overcast 6000 ft
Dew Point Not available.
Humidity Not available.
Rainfall --
Snow Depth Not available.
7:16 AM 6:21 PM
Waxing Crescent, 5% visible
METAR KMSO 281353Z AUTO 07004KT 10SM BKN047 OVC060 M03/M06 A2962 RMK AO2 SNE13 SLP061 P0001 T10331061
Pressure 29.71 in
Visibility 10.0 miles
Clouds Mostly Cloudy 4700 ft
Overcast 6000 ft
Dew Point Not available.
Humidity Not available.
Rainfall --
Snow Depth Not available.
7:16 AM 6:21 PM
Waxing Crescent, 5% visible
METAR KMSO 281353Z AUTO 07004KT 10SM BKN047 OVC060 M03/M06 A2962 RMK AO2 SNE13 SLP061 P0001 T10331061

Get Your Daily Forecast Email!

Thanks for signing up!

Be on the lookout for a verification email in your inbox.

You'll start receiving the daily forecast at 8 AM.

×

10-Day Weather Forecast

Almanac

Astronomy

Feb. 28, 2017 Rise Set
Actual Time
Civil Twilight
Nautical Twilight
Astronomical Twilight
Moon
Length of Visible Light
Length of Day
Tomorrow will be .
, % of the Moon is Illuminated

Today's Extremes

State Highs State Lows

Community

WunderPhotos

Upload Photos

1,962,540 photos uploaded!

WunderBlog® & News

Nearby

Air Quality

  Air Quality AQ Index Pollutant
Not available.

Snow Depth

Station Depth Elevation

Earthquake Activity

City Distance Mag. Time & Date
Minimum magnitude displayed is 2.5.

Coastal Water Temperatures

Place Temperature

Stations

Nearby Weather Stations

Station Location Temp. Windchill Dew Point Humidity Wind Precip. Elev Updated Type
                   

Watches & Warnings

Winter Weather Advisory
Issued: 5:49 AM MST Feb. 28, 2017 – National Weather Service

... Winter Weather Advisory in effect until noon MST today for
Bitterroot valley and Missoula...

* impacts/timing: snow showers will continue through the morning
causing rapidly changing conditions and slick roads.